Thursday, October 19, 2017, 2:03 PM EDT

KIPT, Williamsport-lycoming County

Location: Montoursville, PA, United States Lat: 41.25
Local Time: 2:03 PM EDT (18:03 GMT) Lon: -76.917
Time Zone: US/Eastern Elev: 528 ft

Show me the last for .
Show Decoded

2017-10-19 12:54 METAR KIPT 191654Z VRB03KT 10SM CLR 17/09 A3016 RMK AO2 SLP213 T01670089 =
2017-10-19 11:54 METAR KIPT 191554Z 00000KT 10SM FEW003 14/09 A3020 RMK AO2 SLP227 T01390089 =
2017-10-19 11:16 METAR KIPT 191516Z 00000KT 9SM FEW003 11/09 A3021 RMK AO2 T01060089 =
2017-10-19 10:54 METAR KIPT 191454Z 00000KT 3SM BR BKN002 09/08 A3021 RMK AO2 SLP233 T00890083
                 58003 =
2017-10-19 10:42 METAR KIPT 191442Z 23004KT 2SM BR OVC002 09/08 A3022 RMK AO2 T00890083 =
2017-10-19 10:20 METAR KIPT 191420Z 00000KT 1/2SM FG VV002 08/08 A3022 RMK AO2 T00830083 =
2017-10-19 09:54 METAR KIPT 191354Z 00000KT 1/4SM FG VV002 08/08 A3023 RMK AO2 SLP239 T00780078 =
2017-10-19 08:54 METAR KIPT 191254Z 00000KT 1/4SM FG VV002 07/07 A3023 RMK AO2 SLP238 T00720067 =
2017-10-19 07:54 METAR KIPT 191154Z 00000KT 1/4SM FG VV002 07/07 A3023 RMK AO2 SLP236 T00720072
                 10083 20061 55001 =
2017-10-19 07:19 METAR KIPT 191119Z 01003KT 1/4SM FG VV002 07/06 A3022 RMK AO2 T00670056 =
2017-10-19 07:07 METAR KIPT 191107Z 00000KT 1/2SM FG VV002 07/06 A3022 RMK AO2 T00670061 =
2017-10-19 06:58 METAR KIPT 191058Z 00000KT 1 1/2SM BR OVC002 07/06 A3022 RMK AO2 T00670061 =
2017-10-19 06:54 METAR KIPT 191054Z 00000KT 6SM BR OVC002 07/06 A3022 RMK AO2 SLP235 T00670061 =
2017-10-19 06:22 METAR KIPT 191022Z AUTO 00000KT 5SM BR OVC002 06/06 A3023 RMK AO2 T00610061 =
2017-10-19 06:09 METAR KIPT 191009Z AUTO 00000KT 1 1/4SM BR OVC002 06/06 A3022 RMK AO2 T00610056
                 =
2017-10-19 05:54 METAR KIPT 190954Z AUTO 34003KT 1/4SM FG VV002 07/06 A3022 RMK AO2 SLP235
                 T00670061 =
2017-10-19 05:40 METAR KIPT 190940Z AUTO 00000KT 1/4SM FG VV002 07/07 A3022 RMK AO2 T00720067 =
2017-10-19 05:21 METAR KIPT 190921Z AUTO 00000KT 1/2SM FG VV002 07/06 A3023 RMK AO2 T00670061 =
2017-10-19 05:13 METAR KIPT 190913Z AUTO 00000KT 1 1/2SM BR OVC002 07/06 A3022 RMK AO2 VIS 1/4V5
                 T00720061 =
2017-10-19 04:54 METAR KIPT 190854Z AUTO 00000KT 10SM OVC002 07/06 A3023 RMK AO2 SLP236 T00720061
                 55004 =
2017-10-19 03:54 METAR KIPT 190754Z AUTO 00000KT 10SM OVC002 07/06 A3023 RMK AO2 SLP236 T00670056
                 =
2017-10-19 02:54 METAR KIPT 190654Z AUTO 00000KT 10SM OVC002 07/07 A3024 RMK AO2 SLP239 T00720067
                 =
2017-10-19 02:34 METAR KIPT 190634Z AUTO 00000KT 9SM BKN002 08/07 A3024 RMK AO2 T00780067 =
2017-10-19 02:26 METAR KIPT 190626Z AUTO 00000KT 9SM SCT002 07/06 A3023 RMK AO2 T00720061 =
2017-10-19 01:54 METAR KIPT 190554Z AUTO 00000KT 10SM CLR 08/07 A3024 RMK AO2 SLP240 T00830067
                 10144 20078 56005 =
2017-10-19 00:54 METAR KIPT 190454Z AUTO 00000KT 10SM CLR 08/07 A3024 RMK AO2 SLP240 T00830072
                 402170044 =
2017-10-18 23:54 METAR KIPT 190354Z AUTO 00000KT 10SM CLR 09/08 A3025 RMK AO2 SLP244 T00940078 =
2017-10-18 22:54 METAR KIPT 190254Z AUTO 00000KT 10SM CLR 09/08 A3025 RMK AO2 SLP246 T00940083
                 53002 =
2017-10-18 21:54 METAR KIPT 190154Z 30003KT 10SM CLR 11/09 A3025 RMK AO2 SLP247 T01110089 =
2017-10-18 20:54 METAR KIPT 190054Z 00000KT 10SM CLR 13/09 A3025 RMK AO2 SLP245 T01280089 =
2017-10-18 19:54 METAR KIPT 182354Z 36003KT 10SM CLR 14/09 A3025 RMK AO2 SLP245 T01390094 10217
                 20139 53008 =
2017-10-18 18:54 METAR KIPT 182254Z 00000KT 10SM CLR 16/09 A3023 RMK AO2 SLP239 T01610089 =
2017-10-18 17:54 METAR KIPT 182154Z 00000KT 10SM CLR 18/11 A3022 RMK AO2 SLP235 T01830106 =
2017-10-18 16:54 METAR KIPT 182054Z 09004KT 10SM CLR 22/09 A3022 RMK AO2 SLP235 T02170094 56020 =
2017-10-18 15:54 METAR KIPT 181954Z 11005KT 10SM CLR 22/09 A3024 RMK AO2 SLP241 T02170089 =
2017-10-18 14:54 METAR KIPT 181854Z 10003KT 10SM CLR 21/08 A3026 RMK AO2 SLP247 T02060078 =

Support USWX by starting your Amazon purchase here.